sensor_id;sensor_type;location;lat;lon;timestamp;P1;durP1;ratioP1;P2;durP2;ratioP2
79751;SDS011;69234;47.446;21.636;2023-08-07T00:00:35;3.20;;;3.20;;
79751;SDS011;69234;47.446;21.636;2023-08-07T00:01:15;3.30;;;3.30;;
79751;SDS011;69234;47.446;21.636;2023-08-07T00:01:46;3.50;;;3.50;;
79751;SDS011;69234;47.446;21.636;2023-08-07T00:02:19;3.37;;;3.37;;
79751;SDS011;69234;47.446;21.636;2023-08-07T00:03:25;3.20;;;3.20;;
79751;SDS011;69234;47.446;21.636;2023-08-07T00:05:26;2.87;;;2.87;;
79751;SDS011;69234;47.446;21.636;2023-08-07T00:05:57;2.93;;;2.93;;
79751;SDS011;69234;47.446;21.636;2023-08-07T00:06:28;3.47;;;3.47;;
79751;SDS011;69234;47.446;21.636;2023-08-07T00:06:59;3.30;;;3.30;;
79751;SDS011;69234;47.446;21.636;2023-08-07T00:07:30;3.73;;;3.73;;
79751;SDS011;69234;47.446;21.636;2023-08-07T00:08:01;3.37;;;3.37;;
79751;SDS011;69234;47.446;21.636;2023-08-07T00:09:07;3.07;;;3.07;;
79751;SDS011;69234;47.446;21.636;2023-08-07T00:10:33;3.50;;;3.50;;
79751;SDS011;69234;47.446;21.636;2023-08-07T00:11:39;3.23;;;3.23;;
79751;SDS011;69234;47.446;21.636;2023-08-07T00:13:23;3.47;;;3.47;;
79751;SDS011;69234;47.446;21.636;2023-08-07T00:13:57;3.30;;;3.30;;
79751;SDS011;69234;47.446;21.636;2023-08-07T00:15:33;3.17;;;3.17;;
79751;SDS011;69234;47.446;21.636;2023-08-07T00:16:12;2.93;;;2.93;;
79751;SDS011;69234;47.446;21.636;2023-08-07T00:17:18;3.47;;;3.47;;
79751;SDS011;69234;47.446;21.636;2023-08-07T00:17:49;3.43;;;3.43;;
79751;SDS011;69234;47.446;21.636;2023-08-07T00:18:20;3.37;;;3.37;;
79751;SDS011;69234;47.446;21.636;2023-08-07T00:19:25;3.23;;;3.23;;
79751;SDS011;69234;47.446;21.636;2023-08-07T00:19:56;3.63;;;3.63;;
79751;SDS011;69234;47.446;21.636;2023-08-07T00:20:27;3.20;;;3.20;;
79751;SDS011;69234;47.446;21.636;2023-08-07T00:20:59;3.23;;;3.23;;
79751;SDS011;69234;47.446;21.636;2023-08-07T00:22:07;3.13;;;3.13;;
79751;SDS011;69234;47.446;21.636;2023-08-07T00:23:34;3.40;;;3.40;;
79751;SDS011;69234;47.446;21.636;2023-08-07T00:24:14;3.53;;;3.53;;
79751;SDS011;69234;47.446;21.636;2023-08-07T00:24:45;3.63;;;3.63;;
79751;SDS011;69234;47.446;21.636;2023-08-07T00:25:51;3.73;;;3.73;;
79751;SDS011;69234;47.446;21.636;2023-08-07T00:26:22;3.50;;;3.50;;
79751;SDS011;69234;47.446;21.636;2023-08-07T00:26:53;3.07;;;3.07;;
79751;SDS011;69234;47.446;21.636;2023-08-07T00:27:24;3.20;;;3.20;;
79751;SDS011;69234;47.446;21.636;2023-08-07T00:27:57;3.00;;;3.00;;
79751;SDS011;69234;47.446;21.636;2023-08-07T00:28:28;3.57;;;3.57;;
79751;SDS011;69234;47.446;21.636;2023-08-07T00:28:59;3.13;;;3.13;;
79751;SDS011;69234;47.446;21.636;2023-08-07T00:29:30;3.03;;;3.03;;
79751;SDS011;69234;47.446;21.636;2023-08-07T00:30:03;3.50;;;3.50;;
79751;SDS011;69234;47.446;21.636;2023-08-07T00:30:34;3.33;;;3.33;;
79751;SDS011;69234;47.446;21.636;2023-08-07T00:31:05;3.50;;;3.50;;
79751;SDS011;69234;47.446;21.636;2023-08-07T00:31:36;3.53;;;3.53;;
79751;SDS011;69234;47.446;21.636;2023-08-07T00:32:07;3.30;;;3.30;;
79751;SDS011;69234;47.446;21.636;2023-08-07T00:32:38;3.30;;;3.30;;
79751;SDS011;69234;47.446;21.636;2023-08-07T00:33:10;3.77;;;3.77;;
79751;SDS011;69234;47.446;21.636;2023-08-07T00:33:41;3.90;;;3.90;;
79751;SDS011;69234;47.446;21.636;2023-08-07T00:34:14;3.73;;;3.73;;
79751;SDS011;69234;47.446;21.636;2023-08-07T00:34:45;3.53;;;3.53;;
79751;SDS011;69234;47.446;21.636;2023-08-07T00:35:16;3.33;;;3.33;;
79751;SDS011;69234;47.446;21.636;2023-08-07T00:35:47;3.43;;;3.43;;
79751;SDS011;69234;47.446;21.636;2023-08-07T00:36:18;3.57;;;3.57;;
79751;SDS011;69234;47.446;21.636;2023-08-07T00:36:49;3.80;;;3.80;;
79751;SDS011;69234;47.446;21.636;2023-08-07T00:37:20;3.70;;;3.70;;
79751;SDS011;69234;47.446;21.636;2023-08-07T00:37:51;3.57;;;3.57;;
79751;SDS011;69234;47.446;21.636;2023-08-07T00:38:22;3.23;;;3.23;;
79751;SDS011;69234;47.446;21.636;2023-08-07T00:38:53;3.20;;;3.20;;
79751;SDS011;69234;47.446;21.636;2023-08-07T00:39:26;3.10;;;3.10;;
79751;SDS011;69234;47.446;21.636;2023-08-07T00:39:57;3.80;;;3.80;;
79751;SDS011;69234;47.446;21.636;2023-08-07T00:40:35;3.73;;;3.73;;
79751;SDS011;69234;47.446;21.636;2023-08-07T00:41:10;3.40;;;3.40;;
79751;SDS011;69234;47.446;21.636;2023-08-07T00:41:41;3.60;;;3.60;;
79751;SDS011;69234;47.446;21.636;2023-08-07T00:42:47;3.70;;;3.70;;
79751;SDS011;69234;47.446;21.636;2023-08-07T00:43:19;3.43;;;3.43;;
79751;SDS011;69234;47.446;21.636;2023-08-07T00:43:51;3.57;;;3.57;;
79751;SDS011;69234;47.446;21.636;2023-08-07T00:44:22;3.80;;;3.80;;
79751;SDS011;69234;47.446;21.636;2023-08-07T00:44:56;4.00;;;4.00;;
79751;SDS011;69234;47.446;21.636;2023-08-07T00:46:02;3.80;;;3.80;;
79751;SDS011;69234;47.446;21.636;2023-08-07T00:46:33;3.43;;;3.43;;
79751;SDS011;69234;47.446;21.636;2023-08-07T00:47:06;3.70;;;3.70;;
79751;SDS011;69234;47.446;21.636;2023-08-07T00:47:37;3.83;;;3.83;;
79751;SDS011;69234;47.446;21.636;2023-08-07T00:48:08;4.13;;;4.13;;
79751;SDS011;69234;47.446;21.636;2023-08-07T00:48:41;3.73;;;3.73;;
79751;SDS011;69234;47.446;21.636;2023-08-07T00:49:12;3.50;;;3.50;;
79751;SDS011;69234;47.446;21.636;2023-08-07T00:49:44;3.53;;;3.53;;
79751;SDS011;69234;47.446;21.636;2023-08-07T00:50:15;3.57;;;3.57;;
79751;SDS011;69234;47.446;21.636;2023-08-07T00:51:21;3.97;;;3.97;;
79751;SDS011;69234;47.446;21.636;2023-08-07T00:51:54;4.00;;;4.00;;
79751;SDS011;69234;47.446;21.636;2023-08-07T00:52:25;4.13;;;4.13;;
79751;SDS011;69234;47.446;21.636;2023-08-07T00:52:56;3.87;;;3.87;;
79751;SDS011;69234;47.446;21.636;2023-08-07T00:54:04;4.07;;;4.07;;
79751;SDS011;69234;47.446;21.636;2023-08-07T00:54:40;4.00;;;4.00;;
79751;SDS011;69234;47.446;21.636;2023-08-07T00:55:13;3.67;;;3.67;;
79751;SDS011;69234;47.446;21.636;2023-08-07T00:55:45;3.63;;;3.63;;
79751;SDS011;69234;47.446;21.636;2023-08-07T00:56:17;3.80;;;3.80;;
79751;SDS011;69234;47.446;21.636;2023-08-07T00:56:48;3.50;;;3.50;;
79751;SDS011;69234;47.446;21.636;2023-08-07T00:57:20;3.53;;;3.53;;
79751;SDS011;69234;47.446;21.636;2023-08-07T00:57:53;3.80;;;3.80;;
79751;SDS011;69234;47.446;21.636;2023-08-07T00:58:24;3.83;;;3.83;;
79751;SDS011;69234;47.446;21.636;2023-08-07T00:58:55;3.63;;;3.63;;
79751;SDS011;69234;47.446;21.636;2023-08-07T00:59:28;3.60;;;3.60;;
79751;SDS011;69234;47.446;21.636;2023-08-07T00:59:59;3.67;;;3.67;;
79751;SDS011;69234;47.446;21.636;2023-08-07T01:00:30;3.57;;;3.57;;
79751;SDS011;69234;47.446;21.636;2023-08-07T01:01:01;3.67;;;3.67;;
79751;SDS011;69234;47.446;21.636;2023-08-07T01:01:32;3.30;;;3.30;;
79751;SDS011;69234;47.446;21.636;2023-08-07T01:02:04;3.73;;;3.73;;
79751;SDS011;69234;47.446;21.636;2023-08-07T01:02:36;3.70;;;3.70;;
79751;SDS011;69234;47.446;21.636;2023-08-07T01:03:07;3.77;;;3.77;;
79751;SDS011;69234;47.446;21.636;2023-08-07T01:03:37;3.37;;;3.37;;
79751;SDS011;69234;47.446;21.636;2023-08-07T01:04:16;3.87;;;3.87;;
79751;SDS011;69234;47.446;21.636;2023-08-07T01:04:47;3.83;;;3.83;;
79751;SDS011;69234;47.446;21.636;2023-08-07T01:05:18;3.73;;;3.73;;
79751;SDS011;69234;47.446;21.636;2023-08-07T01:05:49;3.50;;;3.50;;
79751;SDS011;69234;47.446;21.636;2023-08-07T01:06:20;3.80;;;3.80;;
79751;SDS011;69234;47.446;21.636;2023-08-07T01:06:51;3.93;;;3.93;;
79751;SDS011;69234;47.446;21.636;2023-08-07T01:07:22;3.30;;;3.30;;
79751;SDS011;69234;47.446;21.636;2023-08-07T01:07:53;3.90;;;3.90;;
79751;SDS011;69234;47.446;21.636;2023-08-07T01:08:26;4.17;;;4.17;;
79751;SDS011;69234;47.446;21.636;2023-08-07T01:08:59;3.57;;;3.57;;
79751;SDS011;69234;47.446;21.636;2023-08-07T01:09:30;3.23;;;3.23;;
79751;SDS011;69234;47.446;21.636;2023-08-07T01:10:01;3.50;;;3.50;;
79751;SDS011;69234;47.446;21.636;2023-08-07T01:10:51;3.87;;;3.87;;
79751;SDS011;69234;47.446;21.636;2023-08-07T01:12:24;3.60;;;3.60;;
79751;SDS011;69234;47.446;21.636;2023-08-07T01:13:12;3.57;;;3.57;;
79751;SDS011;69234;47.446;21.636;2023-08-07T01:15:32;3.40;;;3.40;;
79751;SDS011;69234;47.446;21.636;2023-08-07T01:16:18;4.20;;;4.20;;
79751;SDS011;69234;47.446;21.636;2023-08-07T01:17:13;3.83;;;3.83;;
79751;SDS011;69234;47.446;21.636;2023-08-07T01:17:48;3.80;;;3.80;;
79751;SDS011;69234;47.446;21.636;2023-08-07T01:18:22;3.47;;;3.47;;
79751;SDS011;69234;47.446;21.636;2023-08-07T01:18:55;3.60;;;3.60;;
79751;SDS011;69234;47.446;21.636;2023-08-07T01:19:28;3.60;;;3.60;;
79751;SDS011;69234;47.446;21.636;2023-08-07T01:20:00;3.37;;;3.37;;
79751;SDS011;69234;47.446;21.636;2023-08-07T01:20:32;3.27;;;3.27;;
79751;SDS011;69234;47.446;21.636;2023-08-07T01:21:03;3.50;;;3.50;;
79751;SDS011;69234;47.446;21.636;2023-08-07T01:21:34;3.53;;;3.53;;
79751;SDS011;69234;47.446;21.636;2023-08-07T01:22:46;3.53;;;3.53;;
79751;SDS011;69234;47.446;21.636;2023-08-07T01:23:17;3.50;;;3.50;;
79751;SDS011;69234;47.446;21.636;2023-08-07T01:23:48;3.73;;;3.73;;
79751;SDS011;69234;47.446;21.636;2023-08-07T01:24:19;3.77;;;3.77;;
79751;SDS011;69234;47.446;21.636;2023-08-07T01:24:50;3.50;;;3.50;;
79751;SDS011;69234;47.446;21.636;2023-08-07T01:25:21;3.70;;;3.70;;
79751;SDS011;69234;47.446;21.636;2023-08-07T01:25:53;3.93;;;3.93;;
79751;SDS011;69234;47.446;21.636;2023-08-07T01:26:24;3.40;;;3.40;;
79751;SDS011;69234;47.446;21.636;2023-08-07T01:26:55;3.17;;;3.17;;
79751;SDS011;69234;47.446;21.636;2023-08-07T01:27:52;3.40;;;3.40;;
79751;SDS011;69234;47.446;21.636;2023-08-07T01:29:14;3.03;;;3.03;;
79751;SDS011;69234;47.446;21.636;2023-08-07T01:31:04;3.20;;;3.20;;
79751;SDS011;69234;47.446;21.636;2023-08-07T01:31:44;3.03;;;3.03;;
79751;SDS011;69234;47.446;21.636;2023-08-07T01:32:24;3.00;;;3.00;;
79751;SDS011;69234;47.446;21.636;2023-08-07T01:33:22;3.50;;;3.50;;
79751;SDS011;69234;47.446;21.636;2023-08-07T01:34:04;3.90;;;3.90;;
79751;SDS011;69234;47.446;21.636;2023-08-07T01:34:38;3.63;;;3.63;;
79751;SDS011;69234;47.446;21.636;2023-08-07T01:35:12;3.47;;;3.47;;
79751;SDS011;69234;47.446;21.636;2023-08-07T01:35:47;2.93;;;2.93;;
79751;SDS011;69234;47.446;21.636;2023-08-07T01:36:27;3.43;;;3.43;;
79751;SDS011;69234;47.446;21.636;2023-08-07T01:36:59;3.17;;;3.17;;
79751;SDS011;69234;47.446;21.636;2023-08-07T01:37:34;3.20;;;3.20;;
79751;SDS011;69234;47.446;21.636;2023-08-07T01:38:10;3.17;;;3.17;;
79751;SDS011;69234;47.446;21.636;2023-08-07T01:38:44;3.30;;;3.30;;
79751;SDS011;69234;47.446;21.636;2023-08-07T01:39:19;3.30;;;3.30;;
79751;SDS011;69234;47.446;21.636;2023-08-07T01:39:50;3.27;;;3.27;;
79751;SDS011;69234;47.446;21.636;2023-08-07T01:40:24;3.50;;;3.50;;
79751;SDS011;69234;47.446;21.636;2023-08-07T01:40:57;2.83;;;2.83;;
79751;SDS011;69234;47.446;21.636;2023-08-07T01:41:30;3.03;;;3.03;;
79751;SDS011;69234;47.446;21.636;2023-08-07T01:42:02;3.27;;;3.27;;
79751;SDS011;69234;47.446;21.636;2023-08-07T01:42:35;3.40;;;3.40;;
79751;SDS011;69234;47.446;21.636;2023-08-07T01:43:08;3.13;;;3.13;;
79751;SDS011;69234;47.446;21.636;2023-08-07T01:43:39;3.03;;;3.03;;
79751;SDS011;69234;47.446;21.636;2023-08-07T01:44:11;2.80;;;2.80;;
79751;SDS011;69234;47.446;21.636;2023-08-07T01:44:43;3.10;;;3.10;;
79751;SDS011;69234;47.446;21.636;2023-08-07T01:45:14;3.10;;;3.10;;
79751;SDS011;69234;47.446;21.636;2023-08-07T01:45:54;3.07;;;3.07;;
79751;SDS011;69234;47.446;21.636;2023-08-07T01:46:25;3.27;;;3.27;;
79751;SDS011;69234;47.446;21.636;2023-08-07T01:46:58;2.87;;;2.87;;
79751;SDS011;69234;47.446;21.636;2023-08-07T01:48:05;3.10;;;3.10;;
79751;SDS011;69234;47.446;21.636;2023-08-07T01:48:36;2.73;;;2.73;;
79751;SDS011;69234;47.446;21.636;2023-08-07T01:49:07;2.63;;;2.63;;
79751;SDS011;69234;47.446;21.636;2023-08-07T01:49:38;2.97;;;2.97;;
79751;SDS011;69234;47.446;21.636;2023-08-07T01:50:10;2.50;;;2.50;;
79751;SDS011;69234;47.446;21.636;2023-08-07T01:50:41;2.73;;;2.73;;
79751;SDS011;69234;47.446;21.636;2023-08-07T01:51:47;3.13;;;3.13;;
79751;SDS011;69234;47.446;21.636;2023-08-07T01:52:19;2.97;;;2.97;;
79751;SDS011;69234;47.446;21.636;2023-08-07T01:52:51;2.83;;;2.83;;
79751;SDS011;69234;47.446;21.636;2023-08-07T01:53:23;3.00;;;3.00;;
79751;SDS011;69234;47.446;21.636;2023-08-07T01:53:54;2.87;;;2.87;;
79751;SDS011;69234;47.446;21.636;2023-08-07T01:54:25;2.77;;;2.77;;
79751;SDS011;69234;47.446;21.636;2023-08-07T01:54:56;2.90;;;2.90;;
79751;SDS011;69234;47.446;21.636;2023-08-07T01:55:27;2.70;;;2.70;;
79751;SDS011;69234;47.446;21.636;2023-08-07T01:56:33;2.93;;;2.93;;
79751;SDS011;69234;47.446;21.636;2023-08-07T01:57:04;2.90;;;2.90;;
79751;SDS011;69234;47.446;21.636;2023-08-07T01:57:35;2.93;;;2.93;;
79751;SDS011;69234;47.446;21.636;2023-08-07T01:58:06;2.50;;;2.50;;
79751;SDS011;69234;47.446;21.636;2023-08-07T01:58:37;2.57;;;2.57;;
79751;SDS011;69234;47.446;21.636;2023-08-07T01:59:08;2.67;;;2.67;;
79751;SDS011;69234;47.446;21.636;2023-08-07T01:59:39;3.00;;;3.00;;
79751;SDS011;69234;47.446;21.636;2023-08-07T02:00:10;2.97;;;2.97;;
79751;SDS011;69234;47.446;21.636;2023-08-07T02:00:45;3.00;;;3.00;;
79751;SDS011;69234;47.446;21.636;2023-08-07T02:01:16;2.73;;;2.73;;
79751;SDS011;69234;47.446;21.636;2023-08-07T02:01:47;2.73;;;2.73;;
79751;SDS011;69234;47.446;21.636;2023-08-07T02:02:18;2.80;;;2.80;;
79751;SDS011;69234;47.446;21.636;2023-08-07T02:02:49;2.80;;;2.80;;
79751;SDS011;69234;47.446;21.636;2023-08-07T02:03:20;2.70;;;2.70;;
79751;SDS011;69234;47.446;21.636;2023-08-07T02:03:52;2.87;;;2.87;;
79751;SDS011;69234;47.446;21.636;2023-08-07T02:04:23;2.70;;;2.70;;
79751;SDS011;69234;47.446;21.636;2023-08-07T02:04:54;2.57;;;2.57;;
79751;SDS011;69234;47.446;21.636;2023-08-07T02:05:25;2.73;;;2.73;;
79751;SDS011;69234;47.446;21.636;2023-08-07T02:05:56;2.73;;;2.73;;
79751;SDS011;69234;47.446;21.636;2023-08-07T02:06:29;2.70;;;2.70;;
79751;SDS011;69234;47.446;21.636;2023-08-07T02:06:59;2.80;;;2.80;;
79751;SDS011;69234;47.446;21.636;2023-08-07T02:07:31;2.57;;;2.57;;
79751;SDS011;69234;47.446;21.636;2023-08-07T02:08:02;2.57;;;2.57;;
79751;SDS011;69234;47.446;21.636;2023-08-07T02:08:33;2.93;;;2.93;;
79751;SDS011;69234;47.446;21.636;2023-08-07T02:09:04;2.80;;;2.80;;
79751;SDS011;69234;47.446;21.636;2023-08-07T02:09:35;2.83;;;2.83;;
79751;SDS011;69234;47.446;21.636;2023-08-07T02:10:06;2.50;;;2.50;;
79751;SDS011;69234;47.446;21.636;2023-08-07T02:10:38;2.47;;;2.47;;
79751;SDS011;69234;47.446;21.636;2023-08-07T02:11:09;2.57;;;2.57;;
79751;SDS011;69234;47.446;21.636;2023-08-07T02:11:41;2.67;;;2.67;;
79751;SDS011;69234;47.446;21.636;2023-08-07T02:12:13;2.57;;;2.57;;
79751;SDS011;69234;47.446;21.636;2023-08-07T02:12:43;2.50;;;2.50;;
79751;SDS011;69234;47.446;21.636;2023-08-07T02:13:14;2.57;;;2.57;;
79751;SDS011;69234;47.446;21.636;2023-08-07T02:13:46;2.23;;;2.23;;
79751;SDS011;69234;47.446;21.636;2023-08-07T02:14:17;2.47;;;2.47;;
79751;SDS011;69234;47.446;21.636;2023-08-07T02:14:48;2.67;;;2.67;;
79751;SDS011;69234;47.446;21.636;2023-08-07T02:15:19;2.57;;;2.57;;
79751;SDS011;69234;47.446;21.636;2023-08-07T02:15:54;2.93;;;2.93;;
79751;SDS011;69234;47.446;21.636;2023-08-07T02:16:25;2.73;;;2.73;;
79751;SDS011;69234;47.446;21.636;2023-08-07T02:17:32;2.53;;;2.53;;
79751;SDS011;69234;47.446;21.636;2023-08-07T02:18:03;2.77;;;2.77;;
79751;SDS011;69234;47.446;21.636;2023-08-07T02:18:34;2.40;;;2.40;;
79751;SDS011;69234;47.446;21.636;2023-08-07T02:19:05;2.30;;;2.30;;
79751;SDS011;69234;47.446;21.636;2023-08-07T02:19:37;2.37;;;2.37;;
79751;SDS011;69234;47.446;21.636;2023-08-07T02:20:08;2.63;;;2.63;;
79751;SDS011;69234;47.446;21.636;2023-08-07T02:20:39;2.27;;;2.27;;
79751;SDS011;69234;47.446;21.636;2023-08-07T02:21:11;2.27;;;2.27;;
79751;SDS011;69234;47.446;21.636;2023-08-07T02:22:17;2.50;;;2.50;;
79751;SDS011;69234;47.446;21.636;2023-08-07T02:22:48;2.50;;;2.50;;
79751;SDS011;69234;47.446;21.636;2023-08-07T02:23:19;2.17;;;2.17;;
79751;SDS011;69234;47.446;21.636;2023-08-07T02:23:50;1.93;;;1.93;;
79751;SDS011;69234;47.446;21.636;2023-08-07T02:24:21;2.03;;;2.03;;
79751;SDS011;69234;47.446;21.636;2023-08-07T02:24:52;2.27;;;2.27;;
79751;SDS011;69234;47.446;21.636;2023-08-07T02:25:23;2.13;;;2.13;;
79751;SDS011;69234;47.446;21.636;2023-08-07T02:26:49;2.20;;;2.20;;
79751;SDS011;69234;47.446;21.636;2023-08-07T02:27:23;2.43;;;2.43;;
79751;SDS011;69234;47.446;21.636;2023-08-07T02:27:54;2.10;;;2.10;;
79751;SDS011;69234;47.446;21.636;2023-08-07T02:28:25;2.10;;;2.10;;
79751;SDS011;69234;47.446;21.636;2023-08-07T02:28:56;2.27;;;2.27;;
79751;SDS011;69234;47.446;21.636;2023-08-07T02:30:23;2.43;;;2.43;;
79751;SDS011;69234;47.446;21.636;2023-08-07T02:30:54;2.33;;;2.33;;
79751;SDS011;69234;47.446;21.636;2023-08-07T02:31:25;2.33;;;2.33;;
79751;SDS011;69234;47.446;21.636;2023-08-07T02:32:32;2.10;;;2.10;;
79751;SDS011;69234;47.446;21.636;2023-08-07T02:33:03;1.83;;;1.83;;
79751;SDS011;69234;47.446;21.636;2023-08-07T02:33:34;1.97;;;1.97;;
79751;SDS011;69234;47.446;21.636;2023-08-07T02:34:05;2.47;;;2.47;;
79751;SDS011;69234;47.446;21.636;2023-08-07T02:35:11;1.53;;;1.53;;
79751;SDS011;69234;47.446;21.636;2023-08-07T02:35:42;1.43;;;1.43;;
79751;SDS011;69234;47.446;21.636;2023-08-07T02:36:13;1.90;;;1.90;;
79751;SDS011;69234;47.446;21.636;2023-08-07T02:36:44;2.03;;;2.03;;
79751;SDS011;69234;47.446;21.636;2023-08-07T02:37:15;1.83;;;1.83;;
79751;SDS011;69234;47.446;21.636;2023-08-07T02:37:48;1.87;;;1.87;;
79751;SDS011;69234;47.446;21.636;2023-08-07T02:38:18;2.27;;;2.27;;
79751;SDS011;69234;47.446;21.636;2023-08-07T02:38:50;2.17;;;2.17;;
79751;SDS011;69234;47.446;21.636;2023-08-07T02:39:21;1.93;;;1.93;;
79751;SDS011;69234;47.446;21.636;2023-08-07T02:39:53;1.77;;;1.77;;
79751;SDS011;69234;47.446;21.636;2023-08-07T02:40:24;1.67;;;1.67;;
79751;SDS011;69234;47.446;21.636;2023-08-07T02:40:55;1.97;;;1.97;;
79751;SDS011;69234;47.446;21.636;2023-08-07T02:41:26;1.73;;;1.73;;
79751;SDS011;69234;47.446;21.636;2023-08-07T02:41:57;1.93;;;1.93;;
79751;SDS011;69234;47.446;21.636;2023-08-07T02:42:28;1.97;;;1.97;;
79751;SDS011;69234;47.446;21.636;2023-08-07T02:42:59;1.63;;;1.63;;
79751;SDS011;69234;47.446;21.636;2023-08-07T02:43:30;2.00;;;2.00;;
79751;SDS011;69234;47.446;21.636;2023-08-07T02:44:03;1.77;;;1.77;;
79751;SDS011;69234;47.446;21.636;2023-08-07T02:44:34;1.57;;;1.57;;
79751;SDS011;69234;47.446;21.636;2023-08-07T02:45:05;1.77;;;1.77;;
79751;SDS011;69234;47.446;21.636;2023-08-07T02:45:36;1.73;;;1.73;;
79751;SDS011;69234;47.446;21.636;2023-08-07T02:46:07;1.60;;;1.60;;
79751;SDS011;69234;47.446;21.636;2023-08-07T02:46:38;1.77;;;1.77;;
79751;SDS011;69234;47.446;21.636;2023-08-07T02:47:09;1.70;;;1.70;;
79751;SDS011;69234;47.446;21.636;2023-08-07T02:47:40;1.87;;;1.87;;
79751;SDS011;69234;47.446;21.636;2023-08-07T02:48:11;1.97;;;1.97;;
79751;SDS011;69234;47.446;21.636;2023-08-07T02:48:45;1.97;;;1.97;;
79751;SDS011;69234;47.446;21.636;2023-08-07T02:49:16;1.83;;;1.83;;
79751;SDS011;69234;47.446;21.636;2023-08-07T02:49:47;1.67;;;1.67;;
79751;SDS011;69234;47.446;21.636;2023-08-07T02:50:18;1.77;;;1.77;;
79751;SDS011;69234;47.446;21.636;2023-08-07T02:50:48;1.50;;;1.50;;
79751;SDS011;69234;47.446;21.636;2023-08-07T02:51:21;1.60;;;1.60;;
79751;SDS011;69234;47.446;21.636;2023-08-07T02:51:52;1.63;;;1.63;;
79751;SDS011;69234;47.446;21.636;2023-08-07T02:52:23;1.57;;;1.57;;
79751;SDS011;69234;47.446;21.636;2023-08-07T02:52:54;1.57;;;1.57;;
79751;SDS011;69234;47.446;21.636;2023-08-07T02:53:25;1.77;;;1.77;;
79751;SDS011;69234;47.446;21.636;2023-08-07T02:54:31;1.37;;;1.37;;
79751;SDS011;69234;47.446;21.636;2023-08-07T02:55:02;1.47;;;1.47;;
79751;SDS011;69234;47.446;21.636;2023-08-07T02:55:33;1.40;;;1.40;;
79751;SDS011;69234;47.446;21.636;2023-08-07T02:56:04;1.47;;;1.47;;
79751;SDS011;69234;47.446;21.636;2023-08-07T02:56:35;1.57;;;1.57;;
79751;SDS011;69234;47.446;21.636;2023-08-07T02:57:06;1.57;;;1.57;;
79751;SDS011;69234;47.446;21.636;2023-08-07T02:57:37;1.50;;;1.50;;
79751;SDS011;69234;47.446;21.636;2023-08-07T02:58:07;1.43;;;1.43;;
79751;SDS011;69234;47.446;21.636;2023-08-07T03:00:30;1.40;;;1.40;;
79751;SDS011;69234;47.446;21.636;2023-08-07T03:01:04;1.47;;;1.47;;
79751;SDS011;69234;47.446;21.636;2023-08-07T03:01:38;1.33;;;1.33;;
79751;SDS011;69234;47.446;21.636;2023-08-07T03:02:09;1.10;;;1.10;;
79751;SDS011;69234;47.446;21.636;2023-08-07T03:02:39;1.30;;;1.30;;
79751;SDS011;69234;47.446;21.636;2023-08-07T03:03:10;1.27;;;1.27;;
79751;SDS011;69234;47.446;21.636;2023-08-07T03:03:41;1.17;;;1.17;;
79751;SDS011;69234;47.446;21.636;2023-08-07T03:04:12;1.27;;;1.27;;
79751;SDS011;69234;47.446;21.636;2023-08-07T03:04:43;1.23;;;1.23;;
79751;SDS011;69234;47.446;21.636;2023-08-07T03:05:14;1.13;;;1.13;;
79751;SDS011;69234;47.446;21.636;2023-08-07T03:05:51;1.27;;;1.27;;
79751;SDS011;69234;47.446;21.636;2023-08-07T03:06:22;1.17;;;1.17;;
79751;SDS011;69234;47.446;21.636;2023-08-07T03:06:53;1.13;;;1.13;;
79751;SDS011;69234;47.446;21.636;2023-08-07T03:07:25;1.23;;;1.23;;
79751;SDS011;69234;47.446;21.636;2023-08-07T03:08:32;1.13;;;1.13;;
79751;SDS011;69234;47.446;21.636;2023-08-07T03:09:03;1.17;;;1.17;;
79751;SDS011;69234;47.446;21.636;2023-08-07T03:09:34;1.27;;;1.27;;
79751;SDS011;69234;47.446;21.636;2023-08-07T03:10:05;1.23;;;1.23;;
79751;SDS011;69234;47.446;21.636;2023-08-07T03:10:37;1.03;;;1.03;;
79751;SDS011;69234;47.446;21.636;2023-08-07T03:11:08;0.97;;;0.97;;
79751;SDS011;69234;47.446;21.636;2023-08-07T03:11:39;0.93;;;0.93;;
79751;SDS011;69234;47.446;21.636;2023-08-07T03:12:45;1.13;;;1.13;;
79751;SDS011;69234;47.446;21.636;2023-08-07T03:13:16;0.90;;;0.90;;
79751;SDS011;69234;47.446;21.636;2023-08-07T03:13:47;1.03;;;1.03;;
79751;SDS011;69234;47.446;21.636;2023-08-07T03:15:14;1.13;;;1.13;;
79751;SDS011;69234;47.446;21.636;2023-08-07T03:15:45;1.30;;;1.30;;
79751;SDS011;69234;47.446;21.636;2023-08-07T03:16:19;1.00;;;1.00;;
79751;SDS011;69234;47.446;21.636;2023-08-07T03:16:50;1.17;;;1.17;;
79751;SDS011;69234;47.446;21.636;2023-08-07T03:17:21;1.10;;;1.10;;
79751;SDS011;69234;47.446;21.636;2023-08-07T03:17:52;1.00;;;1.00;;
79751;SDS011;69234;47.446;21.636;2023-08-07T03:18:23;0.93;;;0.93;;
79751;SDS011;69234;47.446;21.636;2023-08-07T03:19:49;1.20;;;1.20;;
79751;SDS011;69234;47.446;21.636;2023-08-07T03:20:20;1.03;;;1.03;;
79751;SDS011;69234;47.446;21.636;2023-08-07T03:20:51;1.00;;;1.00;;
79751;SDS011;69234;47.446;21.636;2023-08-07T03:21:22;0.97;;;0.97;;
79751;SDS011;69234;47.446;21.636;2023-08-07T03:21:53;0.87;;;0.87;;
79751;SDS011;69234;47.446;21.636;2023-08-07T03:22:24;1.07;;;1.07;;
79751;SDS011;69234;47.446;21.636;2023-08-07T03:23:30;1.07;;;1.07;;
79751;SDS011;69234;47.446;21.636;2023-08-07T03:24:38;1.10;;;1.10;;
79751;SDS011;69234;47.446;21.636;2023-08-07T03:25:09;1.03;;;1.03;;
79751;SDS011;69234;47.446;21.636;2023-08-07T03:25:40;0.97;;;0.97;;
79751;SDS011;69234;47.446;21.636;2023-08-07T03:26:12;0.97;;;0.97;;
79751;SDS011;69234;47.446;21.636;2023-08-07T03:26:43;1.13;;;1.13;;
79751;SDS011;69234;47.446;21.636;2023-08-07T03:27:17;1.07;;;1.07;;
79751;SDS011;69234;47.446;21.636;2023-08-07T03:27:48;0.87;;;0.87;;
79751;SDS011;69234;47.446;21.636;2023-08-07T03:28:19;1.17;;;1.17;;
79751;SDS011;69234;47.446;21.636;2023-08-07T03:28:51;0.87;;;0.87;;
79751;SDS011;69234;47.446;21.636;2023-08-07T03:30:53;0.93;;;0.93;;
79751;SDS011;69234;47.446;21.636;2023-08-07T03:31:24;1.00;;;1.00;;
79751;SDS011;69234;47.446;21.636;2023-08-07T03:32:51;1.13;;;1.13;;
79751;SDS011;69234;47.446;21.636;2023-08-07T03:33:23;1.03;;;1.03;;
79751;SDS011;69234;47.446;21.636;2023-08-07T03:33:54;0.83;;;0.83;;
79751;SDS011;69234;47.446;21.636;2023-08-07T03:34:26;0.77;;;0.77;;
79751;SDS011;69234;47.446;21.636;2023-08-07T03:34:57;0.87;;;0.87;;
79751;SDS011;69234;47.446;21.636;2023-08-07T03:35:28;0.90;;;0.90;;
79751;SDS011;69234;47.446;21.636;2023-08-07T03:36:01;1.00;;;1.00;;
79751;SDS011;69234;47.446;21.636;2023-08-07T03:36:32;0.97;;;0.97;;
79751;SDS011;69234;47.446;21.636;2023-08-07T03:37:03;1.07;;;1.07;;
79751;SDS011;69234;47.446;21.636;2023-08-07T03:37:34;0.87;;;0.87;;
79751;SDS011;69234;47.446;21.636;2023-08-07T03:39:01;1.00;;;1.00;;
79751;SDS011;69234;47.446;21.636;2023-08-07T03:39:33;0.97;;;0.97;;
79751;SDS011;69234;47.446;21.636;2023-08-07T03:40:04;0.97;;;0.97;;
79751;SDS011;69234;47.446;21.636;2023-08-07T03:40:36;0.80;;;0.80;;
79751;SDS011;69234;47.446;21.636;2023-08-07T03:41:09;1.00;;;1.00;;
79751;SDS011;69234;47.446;21.636;2023-08-07T03:41:41;0.87;;;0.87;;
79751;SDS011;69234;47.446;21.636;2023-08-07T03:42:15;0.77;;;0.77;;
79751;SDS011;69234;47.446;21.636;2023-08-07T03:42:48;0.90;;;0.90;;
79751;SDS011;69234;47.446;21.636;2023-08-07T03:43:19;0.87;;;0.87;;
79751;SDS011;69234;47.446;21.636;2023-08-07T03:43:50;0.67;;;0.67;;
79751;SDS011;69234;47.446;21.636;2023-08-07T03:44:21;0.83;;;0.83;;